sensor_id;sensor_type;location;lat;lon;timestamp;P1;durP1;ratioP1;P2;durP2;ratioP2
52322;SDS011;38263;52.920;6.238;2024-02-26T00:00:36;18.08;;;10.48;;
52322;SDS011;38263;52.920;6.238;2024-02-26T00:03:02;18.75;;;11.05;;
52322;SDS011;38263;52.920;6.238;2024-02-26T00:05:28;19.00;;;11.13;;
52322;SDS011;38263;52.920;6.238;2024-02-26T00:07:56;16.58;;;9.93;;
52322;SDS011;38263;52.920;6.238;2024-02-26T00:10:22;18.08;;;10.57;;
52322;SDS011;38263;52.920;6.238;2024-02-26T00:12:49;15.93;;;10.15;;
52322;SDS011;38263;52.920;6.238;2024-02-26T00:15:15;17.85;;;10.98;;
52322;SDS011;38263;52.920;6.238;2024-02-26T00:17:41;20.70;;;10.98;;
52322;SDS011;38263;52.920;6.238;2024-02-26T00:20:06;18.10;;;10.88;;
52322;SDS011;38263;52.920;6.238;2024-02-26T00:22:36;16.67;;;10.05;;
52322;SDS011;38263;52.920;6.238;2024-02-26T00:25:02;19.63;;;10.93;;
52322;SDS011;38263;52.920;6.238;2024-02-26T00:27:29;20.48;;;11.70;;
52322;SDS011;38263;52.920;6.238;2024-02-26T00:29:55;20.70;;;12.50;;
52322;SDS011;38263;52.920;6.238;2024-02-26T00:32:21;18.67;;;11.25;;
52322;SDS011;38263;52.920;6.238;2024-02-26T00:34:47;20.05;;;11.15;;
52322;SDS011;38263;52.920;6.238;2024-02-26T00:37:13;18.42;;;10.75;;
52322;SDS011;38263;52.920;6.238;2024-02-26T00:39:39;18.35;;;10.55;;
52322;SDS011;38263;52.920;6.238;2024-02-26T00:42:05;18.48;;;11.65;;
52322;SDS011;38263;52.920;6.238;2024-02-26T00:44:31;18.45;;;11.35;;
52322;SDS011;38263;52.920;6.238;2024-02-26T00:46:57;20.88;;;11.15;;
52322;SDS011;38263;52.920;6.238;2024-02-26T00:49:23;17.80;;;10.60;;
52322;SDS011;38263;52.920;6.238;2024-02-26T00:51:49;21.48;;;11.95;;
52322;SDS011;38263;52.920;6.238;2024-02-26T00:54:15;18.40;;;10.82;;
52322;SDS011;38263;52.920;6.238;2024-02-26T00:56:41;18.08;;;11.55;;
52322;SDS011;38263;52.920;6.238;2024-02-26T00:59:07;19.27;;;11.75;;
52322;SDS011;38263;52.920;6.238;2024-02-26T01:01:33;20.83;;;11.70;;
52322;SDS011;38263;52.920;6.238;2024-02-26T01:03:59;20.98;;;11.90;;
52322;SDS011;38263;52.920;6.238;2024-02-26T01:06:25;19.45;;;11.38;;
52322;SDS011;38263;52.920;6.238;2024-02-26T01:08:51;25.35;;;12.52;;
52322;SDS011;38263;52.920;6.238;2024-02-26T01:11:17;20.77;;;11.70;;
52322;SDS011;38263;52.920;6.238;2024-02-26T01:13:43;19.77;;;10.40;;
52322;SDS011;38263;52.920;6.238;2024-02-26T01:16:09;18.70;;;11.07;;
52322;SDS011;38263;52.920;6.238;2024-02-26T01:18:35;18.67;;;11.45;;
52322;SDS011;38263;52.920;6.238;2024-02-26T01:21:01;21.80;;;12.25;;
52322;SDS011;38263;52.920;6.238;2024-02-26T01:23:29;22.23;;;12.38;;
52322;SDS011;38263;52.920;6.238;2024-02-26T01:25:56;20.00;;;11.18;;
52322;SDS011;38263;52.920;6.238;2024-02-26T01:28:22;20.25;;;10.88;;
52322;SDS011;38263;52.920;6.238;2024-02-26T01:30:48;21.85;;;11.85;;
52322;SDS011;38263;52.920;6.238;2024-02-26T01:33:13;22.45;;;12.23;;
52322;SDS011;38263;52.920;6.238;2024-02-26T01:35:39;22.92;;;12.48;;
52322;SDS011;38263;52.920;6.238;2024-02-26T01:38:05;22.27;;;12.02;;
52322;SDS011;38263;52.920;6.238;2024-02-26T01:40:31;22.05;;;12.82;;
52322;SDS011;38263;52.920;6.238;2024-02-26T01:42:58;26.92;;;13.02;;
52322;SDS011;38263;52.920;6.238;2024-02-26T01:45:25;24.58;;;12.70;;
52322;SDS011;38263;52.920;6.238;2024-02-26T01:47:51;23.15;;;13.50;;
52322;SDS011;38263;52.920;6.238;2024-02-26T01:50:17;24.67;;;14.02;;
52322;SDS011;38263;52.920;6.238;2024-02-26T01:52:44;29.67;;;14.90;;
52322;SDS011;38263;52.920;6.238;2024-02-26T01:55:12;24.42;;;13.77;;
52322;SDS011;38263;52.920;6.238;2024-02-26T01:57:39;26.10;;;14.40;;
52322;SDS011;38263;52.920;6.238;2024-02-26T02:00:05;28.15;;;16.05;;
52322;SDS011;38263;52.920;6.238;2024-02-26T02:02:33;28.02;;;14.85;;
52322;SDS011;38263;52.920;6.238;2024-02-26T02:04:59;28.95;;;15.65;;
52322;SDS011;38263;52.920;6.238;2024-02-26T02:07:25;28.92;;;14.77;;
52322;SDS011;38263;52.920;6.238;2024-02-26T02:09:51;30.42;;;16.05;;
52322;SDS011;38263;52.920;6.238;2024-02-26T02:12:18;27.85;;;14.85;;
52322;SDS011;38263;52.920;6.238;2024-02-26T02:14:44;29.70;;;17.00;;
52322;SDS011;38263;52.920;6.238;2024-02-26T02:17:11;31.25;;;17.65;;
52322;SDS011;38263;52.920;6.238;2024-02-26T02:19:37;29.90;;;16.92;;
52322;SDS011;38263;52.920;6.238;2024-02-26T02:22:03;28.50;;;16.85;;
52322;SDS011;38263;52.920;6.238;2024-02-26T02:24:29;29.85;;;17.13;;
52322;SDS011;38263;52.920;6.238;2024-02-26T02:26:55;31.52;;;16.70;;
52322;SDS011;38263;52.920;6.238;2024-02-26T02:29:21;32.47;;;17.13;;
52322;SDS011;38263;52.920;6.238;2024-02-26T02:31:47;31.88;;;17.42;;
52322;SDS011;38263;52.920;6.238;2024-02-26T02:34:13;33.97;;;17.73;;
52322;SDS011;38263;52.920;6.238;2024-02-26T02:36:49;29.85;;;17.35;;
52322;SDS011;38263;52.920;6.238;2024-02-26T02:39:17;30.73;;;17.70;;
52322;SDS011;38263;52.920;6.238;2024-02-26T02:41:42;32.88;;;17.95;;
52322;SDS011;38263;52.920;6.238;2024-02-26T02:44:08;35.45;;;18.45;;
52322;SDS011;38263;52.920;6.238;2024-02-26T02:46:35;30.75;;;18.45;;
52322;SDS011;38263;52.920;6.238;2024-02-26T02:49:01;32.20;;;17.88;;
52322;SDS011;38263;52.920;6.238;2024-02-26T02:51:27;36.83;;;18.85;;
52322;SDS011;38263;52.920;6.238;2024-02-26T02:53:53;32.35;;;18.20;;
52322;SDS011;38263;52.920;6.238;2024-02-26T02:56:19;32.13;;;18.08;;
52322;SDS011;38263;52.920;6.238;2024-02-26T02:58:45;34.40;;;18.85;;
52322;SDS011;38263;52.920;6.238;2024-02-26T03:01:12;32.13;;;18.27;;
52322;SDS011;38263;52.920;6.238;2024-02-26T03:03:39;31.55;;;18.33;;
52322;SDS011;38263;52.920;6.238;2024-02-26T03:06:05;32.05;;;17.52;;
52322;SDS011;38263;52.920;6.238;2024-02-26T03:08:31;33.03;;;16.98;;
52322;SDS011;38263;52.920;6.238;2024-02-26T03:10:58;29.35;;;16.40;;
52322;SDS011;38263;52.920;6.238;2024-02-26T03:13:24;30.92;;;16.92;;
52322;SDS011;38263;52.920;6.238;2024-02-26T03:15:50;27.13;;;15.40;;
52322;SDS011;38263;52.920;6.238;2024-02-26T03:18:16;27.90;;;15.30;;
52322;SDS011;38263;52.920;6.238;2024-02-26T03:20:42;25.80;;;15.70;;
52322;SDS011;38263;52.920;6.238;2024-02-26T03:23:08;27.67;;;16.05;;
52322;SDS011;38263;52.920;6.238;2024-02-26T03:25:37;28.67;;;16.48;;
52322;SDS011;38263;52.920;6.238;2024-02-26T03:28:03;27.48;;;15.82;;
52322;SDS011;38263;52.920;6.238;2024-02-26T03:30:30;23.38;;;14.60;;
52322;SDS011;38263;52.920;6.238;2024-02-26T03:32:56;27.83;;;16.70;;
52322;SDS011;38263;52.920;6.238;2024-02-26T03:35:22;26.45;;;15.48;;
52322;SDS011;38263;52.920;6.238;2024-02-26T03:37:48;25.10;;;14.35;;
52322;SDS011;38263;52.920;6.238;2024-02-26T03:40:15;25.10;;;14.80;;
52322;SDS011;38263;52.920;6.238;2024-02-26T03:42:43;24.52;;;15.85;;
52322;SDS011;38263;52.920;6.238;2024-02-26T03:45:09;24.80;;;13.70;;
52322;SDS011;38263;52.920;6.238;2024-02-26T03:47:37;22.23;;;14.13;;
52322;SDS011;38263;52.920;6.238;2024-02-26T03:50:04;23.73;;;13.90;;
52322;SDS011;38263;52.920;6.238;2024-02-26T03:52:30;25.20;;;14.50;;
52322;SDS011;38263;52.920;6.238;2024-02-26T03:54:56;26.55;;;14.77;;
52322;SDS011;38263;52.920;6.238;2024-02-26T03:57:24;23.38;;;13.65;;
52322;SDS011;38263;52.920;6.238;2024-02-26T03:59:49;22.17;;;13.02;;
52322;SDS011;38263;52.920;6.238;2024-02-26T04:02:16;21.20;;;13.13;;
52322;SDS011;38263;52.920;6.238;2024-02-26T04:04:44;23.58;;;13.48;;
52322;SDS011;38263;52.920;6.238;2024-02-26T04:07:10;19.13;;;11.70;;
52322;SDS011;38263;52.920;6.238;2024-02-26T04:09:37;18.77;;;11.43;;
52322;SDS011;38263;52.920;6.238;2024-02-26T04:12:03;19.35;;;11.77;;
52322;SDS011;38263;52.920;6.238;2024-02-26T04:14:29;19.30;;;11.80;;
52322;SDS011;38263;52.920;6.238;2024-02-26T04:16:55;17.80;;;11.00;;
52322;SDS011;38263;52.920;6.238;2024-02-26T04:19:21;18.30;;;10.85;;
52322;SDS011;38263;52.920;6.238;2024-02-26T04:21:47;20.10;;;12.32;;
52322;SDS011;38263;52.920;6.238;2024-02-26T04:24:13;17.00;;;10.60;;
52322;SDS011;38263;52.920;6.238;2024-02-26T04:26:39;17.67;;;10.35;;
52322;SDS011;38263;52.920;6.238;2024-02-26T04:29:05;15.65;;;10.65;;
52322;SDS011;38263;52.920;6.238;2024-02-26T04:31:31;16.58;;;10.30;;
52322;SDS011;38263;52.920;6.238;2024-02-26T04:33:58;15.10;;;9.73;;
52322;SDS011;38263;52.920;6.238;2024-02-26T04:36:24;16.75;;;10.85;;
52322;SDS011;38263;52.920;6.238;2024-02-26T04:38:51;16.33;;;9.50;;
52322;SDS011;38263;52.920;6.238;2024-02-26T04:41:19;15.15;;;9.20;;
52322;SDS011;38263;52.920;6.238;2024-02-26T04:43:45;13.85;;;9.13;;
52322;SDS011;38263;52.920;6.238;2024-02-26T04:46:11;15.02;;;9.02;;
52322;SDS011;38263;52.920;6.238;2024-02-26T04:48:38;14.85;;;9.50;;
52322;SDS011;38263;52.920;6.238;2024-02-26T04:51:04;14.70;;;8.30;;
52322;SDS011;38263;52.920;6.238;2024-02-26T04:53:30;13.07;;;8.30;;
52322;SDS011;38263;52.920;6.238;2024-02-26T04:55:56;14.45;;;8.15;;
52322;SDS011;38263;52.920;6.238;2024-02-26T04:58:22;12.90;;;8.65;;
52322;SDS011;38263;52.920;6.238;2024-02-26T05:00:48;11.80;;;8.23;;
52322;SDS011;38263;52.920;6.238;2024-02-26T05:03:14;14.07;;;8.52;;
52322;SDS011;38263;52.920;6.238;2024-02-26T05:05:40;12.98;;;7.57;;
52322;SDS011;38263;52.920;6.238;2024-02-26T05:08:06;13.25;;;8.20;;
52322;SDS011;38263;52.920;6.238;2024-02-26T05:10:33;13.07;;;8.45;;
52322;SDS011;38263;52.920;6.238;2024-02-26T05:12:59;15.43;;;9.77;;
52322;SDS011;38263;52.920;6.238;2024-02-26T05:15:25;12.68;;;7.95;;
52322;SDS011;38263;52.920;6.238;2024-02-26T05:17:51;12.98;;;7.43;;
52322;SDS011;38263;52.920;6.238;2024-02-26T05:20:17;11.80;;;7.15;;
52322;SDS011;38263;52.920;6.238;2024-02-26T05:22:43;10.85;;;7.63;;
52322;SDS011;38263;52.920;6.238;2024-02-26T05:25:09;10.27;;;6.97;;
52322;SDS011;38263;52.920;6.238;2024-02-26T05:27:35;11.35;;;7.97;;
52322;SDS011;38263;52.920;6.238;2024-02-26T05:30:02;15.45;;;7.55;;
52322;SDS011;38263;52.920;6.238;2024-02-26T05:32:28;11.60;;;6.88;;
52322;SDS011;38263;52.920;6.238;2024-02-26T05:34:55;15.48;;;7.07;;
52322;SDS011;38263;52.920;6.238;2024-02-26T05:37:21;9.20;;;6.25;;
52322;SDS011;38263;52.920;6.238;2024-02-26T05:39:47;9.63;;;6.13;;
52322;SDS011;38263;52.920;6.238;2024-02-26T05:42:13;10.30;;;6.10;;
52322;SDS011;38263;52.920;6.238;2024-02-26T05:44:39;9.02;;;6.13;;
52322;SDS011;38263;52.920;6.238;2024-02-26T05:47:05;11.90;;;6.57;;
52322;SDS011;38263;52.920;6.238;2024-02-26T05:49:31;9.80;;;5.72;;
52322;SDS011;38263;52.920;6.238;2024-02-26T05:51:58;7.65;;;5.32;;
52322;SDS011;38263;52.920;6.238;2024-02-26T05:54:24;7.40;;;5.00;;
52322;SDS011;38263;52.920;6.238;2024-02-26T05:56:50;10.07;;;5.55;;
52322;SDS011;38263;52.920;6.238;2024-02-26T05:59:17;9.82;;;5.60;;
52322;SDS011;38263;52.920;6.238;2024-02-26T06:01:43;8.10;;;4.47;;
52322;SDS011;38263;52.920;6.238;2024-02-26T06:04:09;9.20;;;4.60;;
52322;SDS011;38263;52.920;6.238;2024-02-26T06:06:35;11.10;;;5.03;;
52322;SDS011;38263;52.920;6.238;2024-02-26T06:09:01;10.27;;;4.40;;
52322;SDS011;38263;52.920;6.238;2024-02-26T06:11:27;8.48;;;4.38;;
52322;SDS011;38263;52.920;6.238;2024-02-26T06:13:53;9.50;;;3.90;;
52322;SDS011;38263;52.920;6.238;2024-02-26T06:16:19;8.35;;;4.50;;
52322;SDS011;38263;52.920;6.238;2024-02-26T06:18:45;7.43;;;4.13;;
52322;SDS011;38263;52.920;6.238;2024-02-26T06:21:11;5.60;;;4.22;;
52322;SDS011;38263;52.920;6.238;2024-02-26T06:23:38;6.50;;;3.67;;
52322;SDS011;38263;52.920;6.238;2024-02-26T06:26:05;6.25;;;3.65;;
52322;SDS011;38263;52.920;6.238;2024-02-26T06:28:31;5.43;;;4.15;;
52322;SDS011;38263;52.920;6.238;2024-02-26T06:30:59;6.60;;;4.35;;
52322;SDS011;38263;52.920;6.238;2024-02-26T06:33:25;10.07;;;4.10;;
52322;SDS011;38263;52.920;6.238;2024-02-26T06:35:51;6.22;;;4.13;;
52322;SDS011;38263;52.920;6.238;2024-02-26T06:38:17;6.50;;;3.63;;
52322;SDS011;38263;52.920;6.238;2024-02-26T06:40:43;8.00;;;3.97;;
52322;SDS011;38263;52.920;6.238;2024-02-26T06:43:10;5.60;;;3.97;;
52322;SDS011;38263;52.920;6.238;2024-02-26T06:45:36;6.97;;;4.35;;
52322;SDS011;38263;52.920;6.238;2024-02-26T06:48:02;5.50;;;3.78;;
52322;SDS011;38263;52.920;6.238;2024-02-26T06:50:28;4.65;;;3.47;;
52322;SDS011;38263;52.920;6.238;2024-02-26T06:52:54;4.85;;;4.10;;
52322;SDS011;38263;52.920;6.238;2024-02-26T06:55:20;4.97;;;4.22;;
52322;SDS011;38263;52.920;6.238;2024-02-26T06:57:46;5.57;;;3.53;;
52322;SDS011;38263;52.920;6.238;2024-02-26T07:00:12;6.55;;;3.80;;
52322;SDS011;38263;52.920;6.238;2024-02-26T07:02:41;6.93;;;4.47;;
52322;SDS011;38263;52.920;6.238;2024-02-26T07:05:07;5.57;;;4.13;;
52322;SDS011;38263;52.920;6.238;2024-02-26T07:07:34;5.78;;;3.70;;
52322;SDS011;38263;52.920;6.238;2024-02-26T07:10:00;6.35;;;3.85;;
52322;SDS011;38263;52.920;6.238;2024-02-26T07:12:28;5.78;;;3.80;;
52322;SDS011;38263;52.920;6.238;2024-02-26T07:14:54;4.97;;;4.15;;
52322;SDS011;38263;52.920;6.238;2024-02-26T07:17:20;6.07;;;4.13;;
52322;SDS011;38263;52.920;6.238;2024-02-26T07:19:46;6.45;;;4.13;;
52322;SDS011;38263;52.920;6.238;2024-02-26T07:22:12;6.35;;;4.07;;
52322;SDS011;38263;52.920;6.238;2024-02-26T07:24:39;5.65;;;4.32;;
52322;SDS011;38263;52.920;6.238;2024-02-26T07:27:05;5.60;;;4.30;;
52322;SDS011;38263;52.920;6.238;2024-02-26T07:29:31;5.68;;;4.13;;
52322;SDS011;38263;52.920;6.238;2024-02-26T07:31:57;5.75;;;4.35;;
52322;SDS011;38263;52.920;6.238;2024-02-26T07:34:23;6.43;;;4.50;;
52322;SDS011;38263;52.920;6.238;2024-02-26T07:36:54;5.30;;;4.18;;
52322;SDS011;38263;52.920;6.238;2024-02-26T07:39:20;8.02;;;5.05;;
52322;SDS011;38263;52.920;6.238;2024-02-26T07:41:46;6.88;;;4.53;;
52322;SDS011;38263;52.920;6.238;2024-02-26T07:44:14;6.25;;;4.60;;
52322;SDS011;38263;52.920;6.238;2024-02-26T07:46:40;4.95;;;4.07;;
52322;SDS011;38263;52.920;6.238;2024-02-26T07:49:06;7.05;;;4.65;;
52322;SDS011;38263;52.920;6.238;2024-02-26T07:51:33;7.38;;;5.18;;
52322;SDS011;38263;52.920;6.238;2024-02-26T07:54:00;6.95;;;4.10;;
52322;SDS011;38263;52.920;6.238;2024-02-26T07:56:26;7.68;;;4.57;;
52322;SDS011;38263;52.920;6.238;2024-02-26T07:58:52;5.90;;;4.20;;
52322;SDS011;38263;52.920;6.238;2024-02-26T08:01:18;4.88;;;4.00;;
52322;SDS011;38263;52.920;6.238;2024-02-26T08:03:44;8.13;;;4.38;;
52322;SDS011;38263;52.920;6.238;2024-02-26T08:06:10;6.90;;;4.10;;
52322;SDS011;38263;52.920;6.238;2024-02-26T08:08:36;6.28;;;4.20;;
52322;SDS011;38263;52.920;6.238;2024-02-26T08:11:03;7.70;;;4.95;;
52322;SDS011;38263;52.920;6.238;2024-02-26T08:13:29;11.98;;;4.57;;
52322;SDS011;38263;52.920;6.238;2024-02-26T08:15:55;7.60;;;3.97;;
52322;SDS011;38263;52.920;6.238;2024-02-26T08:18:21;4.93;;;4.10;;
52322;SDS011;38263;52.920;6.238;2024-02-26T08:20:47;7.40;;;4.15;;
52322;SDS011;38263;52.920;6.238;2024-02-26T08:23:14;5.93;;;4.38;;
52322;SDS011;38263;52.920;6.238;2024-02-26T08:25:40;7.40;;;4.05;;
52322;SDS011;38263;52.920;6.238;2024-02-26T08:28:06;5.53;;;3.63;;
52322;SDS011;38263;52.920;6.238;2024-02-26T08:30:32;5.50;;;3.97;;
52322;SDS011;38263;52.920;6.238;2024-02-26T08:32:59;7.28;;;4.20;;
52322;SDS011;38263;52.920;6.238;2024-02-26T08:35:24;5.18;;;3.80;;
52322;SDS011;38263;52.920;6.238;2024-02-26T08:37:50;4.90;;;3.83;;
52322;SDS011;38263;52.920;6.238;2024-02-26T08:40:17;6.38;;;3.63;;
52322;SDS011;38263;52.920;6.238;2024-02-26T08:42:44;9.30;;;4.05;;
52322;SDS011;38263;52.920;6.238;2024-02-26T08:45:10;5.30;;;3.80;;
52322;SDS011;38263;52.920;6.238;2024-02-26T08:47:37;5.57;;;4.65;;
52322;SDS011;38263;52.920;6.238;2024-02-26T08:50:03;5.90;;;3.80;;
52322;SDS011;38263;52.920;6.238;2024-02-26T08:52:30;5.20;;;4.13;;
52322;SDS011;38263;52.920;6.238;2024-02-26T08:54:56;6.25;;;3.85;;
52322;SDS011;38263;52.920;6.238;2024-02-26T08:57:22;5.60;;;4.03;;
52322;SDS011;38263;52.920;6.238;2024-02-26T08:59:48;4.85;;;4.20;;
52322;SDS011;38263;52.920;6.238;2024-02-26T09:02:14;6.55;;;3.65;;
52322;SDS011;38263;52.920;6.238;2024-02-26T09:04:40;5.28;;;4.13;;
52322;SDS011;38263;52.920;6.238;2024-02-26T09:07:06;5.13;;;4.07;;
52322;SDS011;38263;52.920;6.238;2024-02-26T09:09:32;5.43;;;3.53;;
52322;SDS011;38263;52.920;6.238;2024-02-26T09:11:58;4.93;;;3.80;;
52322;SDS011;38263;52.920;6.238;2024-02-26T09:14:24;6.65;;;4.15;;
52322;SDS011;38263;52.920;6.238;2024-02-26T09:16:50;7.03;;;3.97;;
52322;SDS011;38263;52.920;6.238;2024-02-26T09:19:17;6.32;;;3.58;;
52322;SDS011;38263;52.920;6.238;2024-02-26T09:21:43;7.55;;;4.32;;
52322;SDS011;38263;52.920;6.238;2024-02-26T09:24:10;6.65;;;3.72;;
52322;SDS011;38263;52.920;6.238;2024-02-26T09:26:37;6.15;;;3.47;;
52322;SDS011;38263;52.920;6.238;2024-02-26T09:29:03;6.47;;;4.60;;
52322;SDS011;38263;52.920;6.238;2024-02-26T09:31:33;5.63;;;3.95;;
52322;SDS011;38263;52.920;6.238;2024-02-26T09:33:59;5.68;;;3.95;;
52322;SDS011;38263;52.920;6.238;2024-02-26T09:36:25;5.30;;;3.88;;
52322;SDS011;38263;52.920;6.238;2024-02-26T09:38:51;7.43;;;4.43;;
52322;SDS011;38263;52.920;6.238;2024-02-26T09:41:17;10.25;;;4.40;;
52322;SDS011;38263;52.920;6.238;2024-02-26T09:43:44;6.82;;;4.47;;
52322;SDS011;38263;52.920;6.238;2024-02-26T09:46:13;5.75;;;4.10;;
52322;SDS011;38263;52.920;6.238;2024-02-26T09:48:40;4.72;;;3.47;;
52322;SDS011;38263;52.920;6.238;2024-02-26T09:51:08;6.22;;;4.07;;
52322;SDS011;38263;52.920;6.238;2024-02-26T09:53:35;7.22;;;4.10;;
52322;SDS011;38263;52.920;6.238;2024-02-26T09:56:05;5.07;;;3.72;;
52322;SDS011;38263;52.920;6.238;2024-02-26T09:58:32;8.48;;;4.07;;
52322;SDS011;38263;52.920;6.238;2024-02-26T10:00:59;6.50;;;4.18;;
52322;SDS011;38263;52.920;6.238;2024-02-26T10:03:27;6.45;;;3.90;;
52322;SDS011;38263;52.920;6.238;2024-02-26T10:05:54;4.57;;;3.65;;
52322;SDS011;38263;52.920;6.238;2024-02-26T10:08:20;6.38;;;4.05;;
52322;SDS011;38263;52.920;6.238;2024-02-26T10:10:47;6.97;;;4.28;;
52322;SDS011;38263;52.920;6.238;2024-02-26T10:13:13;7.07;;;4.15;;
52322;SDS011;38263;52.920;6.238;2024-02-26T10:15:39;6.70;;;3.88;;
52322;SDS011;38263;52.920;6.238;2024-02-26T10:18:05;4.13;;;3.65;;
52322;SDS011;38263;52.920;6.238;2024-02-26T10:20:31;6.35;;;4.38;;
52322;SDS011;38263;52.920;6.238;2024-02-26T10:22:58;4.80;;;3.83;;
52322;SDS011;38263;52.920;6.238;2024-02-26T10:25:24;5.88;;;4.47;;
52322;SDS011;38263;52.920;6.238;2024-02-26T10:27:50;5.97;;;3.67;;
52322;SDS011;38263;52.920;6.238;2024-02-26T10:30:18;4.43;;;3.63;;
52322;SDS011;38263;52.920;6.238;2024-02-26T10:32:44;4.78;;;3.47;;
52322;SDS011;38263;52.920;6.238;2024-02-26T10:35:11;6.22;;;3.67;;
52322;SDS011;38263;52.920;6.238;2024-02-26T10:37:38;3.63;;;3.33;;
52322;SDS011;38263;52.920;6.238;2024-02-26T10:40:05;5.07;;;3.67;;
52322;SDS011;38263;52.920;6.238;2024-02-26T10:42:31;6.85;;;4.07;;
52322;SDS011;38263;52.920;6.238;2024-02-26T10:44:58;5.22;;;3.38;;
52322;SDS011;38263;52.920;6.238;2024-02-26T10:47:24;4.95;;;3.33;;
52322;SDS011;38263;52.920;6.238;2024-02-26T10:49:50;7.55;;;3.28;;
52322;SDS011;38263;52.920;6.238;2024-02-26T10:52:16;5.43;;;3.83;;
52322;SDS011;38263;52.920;6.238;2024-02-26T10:54:43;4.70;;;3.10;;
52322;SDS011;38263;52.920;6.238;2024-02-26T10:57:13;9.05;;;3.40;;
52322;SDS011;38263;52.920;6.238;2024-02-26T10:59:40;3.97;;;3.55;;
52322;SDS011;38263;52.920;6.238;2024-02-26T11:02:08;4.22;;;2.97;;
52322;SDS011;38263;52.920;6.238;2024-02-26T11:04:36;6.63;;;3.03;;
52322;SDS011;38263;52.920;6.238;2024-02-26T11:07:03;5.95;;;3.28;;
52322;SDS011;38263;52.920;6.238;2024-02-26T11:09:30;4.38;;;3.28;;
52322;SDS011;38263;52.920;6.238;2024-02-26T11:11:57;3.40;;;3.05;;
52322;SDS011;38263;52.920;6.238;2024-02-26T11:14:24;3.80;;;3.35;;
52322;SDS011;38263;52.920;6.238;2024-02-26T11:16:51;3.63;;;3.00;;
52322;SDS011;38263;52.920;6.238;2024-02-26T11:19:17;5.75;;;3.45;;
52322;SDS011;38263;52.920;6.238;2024-02-26T11:21:43;3.90;;;3.05;;
52322;SDS011;38263;52.920;6.238;2024-02-26T11:24:11;3.97;;;3.10;;
52322;SDS011;38263;52.920;6.238;2024-02-26T11:26:42;5.95;;;3.40;;
52322;SDS011;38263;52.920;6.238;2024-02-26T11:29:10;4.25;;;3.50;;
52322;SDS011;38263;52.920;6.238;2024-02-26T11:31:37;3.08;;;2.75;;
52322;SDS011;38263;52.920;6.238;2024-02-26T11:34:04;3.47;;;3.00;;
52322;SDS011;38263;52.920;6.238;2024-02-26T11:36:30;3.53;;;2.63;;
52322;SDS011;38263;52.920;6.238;2024-02-26T11:38:56;7.18;;;3.30;;
52322;SDS011;38263;52.920;6.238;2024-02-26T11:41:22;3.50;;;3.05;;
52322;SDS011;38263;52.920;6.238;2024-02-26T11:43:58;4.00;;;3.58;;
52322;SDS011;38263;52.920;6.238;2024-02-26T11:46:26;3.65;;;3.10;;
52322;SDS011;38263;52.920;6.238;2024-02-26T11:48:56;3.90;;;2.70;;
52322;SDS011;38263;52.920;6.238;2024-02-26T11:51:25;4.03;;;2.35;;
52322;SDS011;38263;52.920;6.238;2024-02-26T11:53:53;2.88;;;2.50;;
52322;SDS011;38263;52.920;6.238;2024-02-26T11:58:45;5.20;;;3.05;;
52322;SDS011;38263;52.920;6.238;2024-02-26T12:03:56;3.63;;;2.72;;
52322;SDS011;38263;52.920;6.238;2024-02-26T12:06:22;2.58;;;2.38;;
52322;SDS011;38263;52.920;6.238;2024-02-26T12:08:50;2.92;;;2.10;;
52322;SDS011;38263;52.920;6.238;2024-02-26T12:11:16;4.25;;;2.95;;
52322;SDS011;38263;52.920;6.238;2024-02-26T12:13:45;3.90;;;3.00;;
52322;SDS011;38263;52.920;6.238;2024-02-26T12:16:21;3.42;;;2.72;;
52322;SDS011;38263;52.920;6.238;2024-02-26T12:19:00;3.42;;;2.83;;
52322;SDS011;38263;52.920;6.238;2024-02-26T12:21:27;3.60;;;2.53;;
52322;SDS011;38263;52.920;6.238;2024-02-26T12:23:53;3.80;;;2.95;;
52322;SDS011;38263;52.920;6.238;2024-02-26T12:26:19;3.13;;;2.60;;
52322;SDS011;38263;52.920;6.238;2024-02-26T12:28:46;3.42;;;2.88;;
52322;SDS011;38263;52.920;6.238;2024-02-26T12:31:12;4.38;;;2.78;;
52322;SDS011;38263;52.920;6.238;2024-02-26T12:33:39;5.25;;;2.88;;
52322;SDS011;38263;52.920;6.238;2024-02-26T12:36:05;4.88;;;3.10;;
52322;SDS011;38263;52.920;6.238;2024-02-26T12:38:31;4.25;;;2.72;;
52322;SDS011;38263;52.920;6.238;2024-02-26T12:40:57;5.72;;;3.72;;
52322;SDS011;38263;52.920;6.238;2024-02-26T12:43:23;6.53;;;3.28;;
52322;SDS011;38263;52.920;6.238;2024-02-26T12:45:49;3.70;;;2.92;;
52322;SDS011;38263;52.920;6.238;2024-02-26T12:48:15;6.20;;;3.33;;
52322;SDS011;38263;52.920;6.238;2024-02-26T12:50:45;4.38;;;3.38;;
52322;SDS011;38263;52.920;6.238;2024-02-26T12:53:12;5.03;;;3.35;;
52322;SDS011;38263;52.920;6.238;2024-02-26T12:55:38;5.05;;;3.75;;
52322;SDS011;38263;52.920;6.238;2024-02-26T12:58:05;5.65;;;4.28;;
52322;SDS011;38263;52.920;6.238;2024-02-26T13:00:31;6.43;;;4.55;;
52322;SDS011;38263;52.920;6.238;2024-02-26T13:02:57;5.45;;;4.40;;
52322;SDS011;38263;52.920;6.238;2024-02-26T13:05:25;7.03;;;4.00;;
52322;SDS011;38263;52.920;6.238;2024-02-26T13:07:51;6.95;;;4.45;;
52322;SDS011;38263;52.920;6.238;2024-02-26T13:10:18;5.50;;;4.30;;
52322;SDS011;38263;52.920;6.238;2024-02-26T13:12:45;6.05;;;4.30;;
52322;SDS011;38263;52.920;6.238;2024-02-26T13:15:16;5.72;;;3.65;;
52322;SDS011;38263;52.920;6.238;2024-02-26T13:17:42;6.22;;;4.40;;
52322;SDS011;38263;52.920;6.238;2024-02-26T13:20:08;7.55;;;4.38;;
52322;SDS011;38263;52.920;6.238;2024-02-26T13:22:35;5.82;;;4.70;;
52322;SDS011;38263;52.920;6.238;2024-02-26T13:25:01;6.80;;;5.18;;
52322;SDS011;38263;52.920;6.238;2024-02-26T13:27:32;9.23;;;4.78;;
52322;SDS011;38263;52.920;6.238;2024-02-26T13:30:05;5.88;;;4.35;;
52322;SDS011;38263;52.920;6.238;2024-02-26T13:32:32;8.30;;;4.97;;
52322;SDS011;38263;52.920;6.238;2024-02-26T13:35:09;8.45;;;4.95;;
52322;SDS011;38263;52.920;6.238;2024-02-26T13:37:36;9.32;;;4.97;;
52322;SDS011;38263;52.920;6.238;2024-02-26T13:40:11;7.93;;;6.00;;
52322;SDS011;38263;52.920;6.238;2024-02-26T13:42:37;11.18;;;4.93;;
52322;SDS011;38263;52.920;6.238;2024-02-26T13:45:04;6.45;;;5.13;;
52322;SDS011;38263;52.920;6.238;2024-02-26T13:47:33;6.63;;;4.95;;
52322;SDS011;38263;52.920;6.238;2024-02-26T13:50:00;6.55;;;5.05;;
52322;SDS011;38263;52.920;6.238;2024-02-26T13:52:26;9.05;;;6.20;;
52322;SDS011;38263;52.920;6.238;2024-02-26T13:54:52;7.32;;;4.50;;
52322;SDS011;38263;52.920;6.238;2024-02-26T13:57:18;6.82;;;5.32;;
52322;SDS011;38263;52.920;6.238;2024-02-26T13:59:45;6.43;;;4.70;;
52322;SDS011;38263;52.920;6.238;2024-02-26T14:02:11;8.88;;;5.68;;
52322;SDS011;38263;52.920;6.238;2024-02-26T14:04:37;10.50;;;4.85;;
52322;SDS011;38263;52.920;6.238;2024-02-26T14:07:03;6.22;;;4.72;;
52322;SDS011;38263;52.920;6.238;2024-02-26T14:09:29;8.27;;;5.13;;
52322;SDS011;38263;52.920;6.238;2024-02-26T14:11:57;9.52;;;5.20;;
52322;SDS011;38263;52.920;6.238;2024-02-26T14:14:23;7.43;;;4.63;;
52322;SDS011;38263;52.920;6.238;2024-02-26T14:16:50;14.57;;;6.03;;
52322;SDS011;38263;52.920;6.238;2024-02-26T14:19:17;7.00;;;5.00;;
52322;SDS011;38263;52.920;6.238;2024-02-26T14:21:43;8.73;;;5.07;;
52322;SDS011;38263;52.920;6.238;2024-02-26T14:24:09;7.82;;;5.13;;
52322;SDS011;38263;52.920;6.238;2024-02-26T14:26:35;9.90;;;5.25;;
52322;SDS011;38263;52.920;6.238;2024-02-26T14:29:01;7.28;;;5.07;;
52322;SDS011;38263;52.920;6.238;2024-02-26T14:31:27;7.60;;;5.63;;
52322;SDS011;38263;52.920;6.238;2024-02-26T14:33:53;8.32;;;5.40;;
52322;SDS011;38263;52.920;6.238;2024-02-26T14:36:20;8.52;;;5.97;;
52322;SDS011;38263;52.920;6.238;2024-02-26T14:38:46;8.25;;;5.90;;